Time;durP1;ratioP1;P1;durP2;ratioP2;P2;SDS_P1;SDS_P2;PMS_P1;PMS_P2;Temp;Humidity;BMP_temperature;BMP_pressure;BME280_temperature;BME280_humidity;BME280_pressure;Samples;Min_cycle;Max_cycle;Signal;HPM_P1;HPM_P2
2022/08/08 00:00:49;;;;;;;5.25;2.28;;;;;;;;;;5092391;28;20024;-60
2022/08/08 00:03:19;;;;;;;3.08;2.20;;;;;;;;;;5090762;28;20039;-59
2022/08/08 00:05:54;;;;;;;4.32;2.15;;;;;;;;;;5089848;28;20028;-60
2022/08/08 00:08:26;;;;;;;4.43;2.35;;;;;;;;;;5089540;28;20036;-60
2022/08/08 00:10:55;;;;;;;3.28;2.40;;;;;;;;;;5088018;28;20112;-60
2022/08/08 00:13:28;;;;;;;5.90;2.20;;;;;;;;;;5082623;28;20021;-61
2022/08/08 00:16:14;;;;;;;5.47;2.20;;;;;;;;;;5081345;28;20032;-60
2022/08/08 00:18:40;;;;;;;4.45;2.30;;;;;;;;;;5073591;28;20049;-60
2022/08/08 00:21:07;;;;;;;3.88;2.25;;;;;;;;;;5082007;28;20485;-60
2022/08/08 00:23:42;;;;;;;4.28;2.25;;;;;;;;;;5091199;28;20020;-60
2022/08/08 00:26:10;;;;;;;4.15;2.90;;;;;;;;;;5090951;28;20081;-60
2022/08/08 00:28:40;;;;;;;5.38;2.92;;;;;;;;;;5082290;28;20087;-60
2022/08/08 00:31:12;;;;;;;6.90;2.40;;;;;;;;;;5091935;28;20052;-60
2022/08/08 00:33:42;;;;;;;5.55;2.40;;;;;;;;;;5092676;28;20051;-60
2022/08/08 00:36:14;;;;;;;4.97;1.95;;;;;;;;;;5092233;28;20050;-60
2022/08/08 00:38:47;;;;;;;4.95;2.63;;;;;;;;;;5082043;28;20029;-61
2022/08/08 00:41:32;;;;;;;2.55;1.70;;;;;;;;;;5089173;28;20488;-61
2022/08/08 00:44:16;;;;;;;3.63;2.35;;;;;;;;;;5085318;28;20020;-60
2022/08/08 00:47:01;;;;;;;3.53;2.45;;;;;;;;;;5090539;28;20016;-61
2022/08/08 00:49:45;;;;;;;3.13;2.10;;;;;;;;;;5075579;28;20402;-60
2022/08/08 00:52:22;;;;;;;3.95;1.88;;;;;;;;;;5085371;28;20021;-60
2022/08/08 00:54:57;;;;;;;4.15;2.60;;;;;;;;;;5080800;28;20395;-60
2022/08/08 00:57:39;;;;;;;3.05;2.13;;;;;;;;;;5090010;28;20215;-60
2022/08/08 01:00:13;;;;;;;3.58;2.65;;;;;;;;;;5077231;28;20024;-60
2022/08/08 01:02:39;;;;;;;6.05;2.25;;;;;;;;;;5093079;28;20395;-61
2022/08/08 01:05:23;;;;;;;4.60;2.28;;;;;;;;;;5085475;28;20090;-61
2022/08/08 01:08:00;;;;;;;3.42;2.05;;;;;;;;;;5079226;28;20111;-61
2022/08/08 01:10:48;;;;;;;3.28;2.40;;;;;;;;;;5081087;28;20024;-60
2022/08/08 01:13:34;;;;;;;3.72;2.45;;;;;;;;;;5081277;28;20032;-61
2022/08/08 01:16:18;;;;;;;4.15;2.47;;;;;;;;;;5092133;28;20032;-61
2022/08/08 01:19:09;;;;;;;3.60;2.33;;;;;;;;;;5090827;28;20024;-61
2022/08/08 01:21:44;;;;;;;4.32;2.67;;;;;;;;;;5090486;28;20086;-61
2022/08/08 01:24:35;;;;;;;3.72;2.28;;;;;;;;;;5085529;28;20020;-60
2022/08/08 01:27:18;;;;;;;4.63;2.80;;;;;;;;;;5087361;28;20491;-60
2022/08/08 01:30:03;;;;;;;4.25;2.47;;;;;;;;;;5087201;28;20031;-61
2022/08/08 01:32:42;;;;;;;4.38;2.38;;;;;;;;;;5078845;28;20723;-61
2022/08/08 01:35:19;;;;;;;3.45;2.10;;;;;;;;;;5080338;28;21797;-61
2022/08/08 01:38:03;;;;;;;4.28;2.38;;;;;;;;;;5085543;28;20051;-61
2022/08/08 01:40:36;;;;;;;3.60;2.47;;;;;;;;;;5089777;28;20027;-61
2022/08/08 01:43:24;;;;;;;5.68;2.80;;;;;;;;;;5089901;28;20050;-61
2022/08/08 01:45:56;;;;;;;4.05;2.50;;;;;;;;;;5086248;28;20027;-61
2022/08/08 01:48:22;;;;;;;5.68;2.47;;;;;;;;;;5090489;28;20076;-61
2022/08/08 01:51:05;;;;;;;4.57;2.63;;;;;;;;;;5083171;28;20032;-61
2022/08/08 01:53:51;;;;;;;3.65;2.17;;;;;;;;;;5090710;28;20072;-61
2022/08/08 01:56:26;;;;;;;4.00;2.33;;;;;;;;;;5090593;28;20056;-61
2022/08/08 01:58:52;;;;;;;7.03;2.80;;;;;;;;;;5083025;28;20634;-61
2022/08/08 02:01:25;;;;;;;4.55;2.30;;;;;;;;;;5084448;28;20798;-61
2022/08/08 02:03:57;;;;;;;3.85;2.00;;;;;;;;;;5080962;28;20021;-61
2022/08/08 02:06:42;;;;;;;3.83;2.30;;;;;;;;;;5084238;28;20038;-61
2022/08/08 02:09:29;;;;;;;4.82;2.30;;;;;;;;;;5082543;28;20119;-61
2022/08/08 02:11:55;;;;;;;4.47;2.67;;;;;;;;;;5073071;28;20527;-60
2022/08/08 02:14:35;;;;;;;3.42;2.10;;;;;;;;;;5082010;28;20107;-61
2022/08/08 02:17:11;;;;;;;5.45;2.42;;;;;;;;;;5089046;28;20028;-61
2022/08/08 02:19:49;;;;;;;4.03;2.22;;;;;;;;;;5086106;28;20020;-61
2022/08/08 02:22:33;;;;;;;7.05;2.40;;;;;;;;;;5089202;28;20101;-61
2022/08/08 02:25:01;;;;;;;4.28;2.55;;;;;;;;;;5075149;28;20121;-60
2022/08/08 02:27:53;;;;;;;5.28;2.25;;;;;;;;;;5090138;28;20027;-61
2022/08/08 02:30:21;;;;;;;3.15;2.13;;;;;;;;;;5051574;28;20081;-61
2022/08/08 02:32:56;;;;;;;6.72;2.78;;;;;;;;;;5091028;28;20107;-60
2022/08/08 02:35:31;;;;;;;4.10;2.53;;;;;;;;;;5091159;28;20024;-60
2022/08/08 02:38:25;;;;;;;5.28;2.55;;;;;;;;;;5085516;28;20039;-61
2022/08/08 02:41:23;;;;;;;7.07;2.60;;;;;;;;;;5080153;28;20039;-60
2022/08/08 02:44:08;;;;;;;3.95;2.70;;;;;;;;;;5046103;28;20509;-60
2022/08/08 02:46:44;;;;;;;4.97;2.45;;;;;;;;;;5089995;28;20475;-61
2022/08/08 02:49:23;;;;;;;5.35;2.65;;;;;;;;;;5080702;28;20099;-60
2022/08/08 02:52:07;;;;;;;4.93;2.70;;;;;;;;;;5088724;28;20028;-61
2022/08/08 02:54:52;;;;;;;3.72;2.80;;;;;;;;;;5077287;28;20024;-61
2022/08/08 02:57:44;;;;;;;5.15;2.90;;;;;;;;;;5076280;28;20069;-60
2022/08/08 03:00:17;;;;;;;4.32;2.75;;;;;;;;;;5078390;28;20103;-60
2022/08/08 03:03:01;;;;;;;5.38;2.75;;;;;;;;;;5083609;28;20483;-60
2022/08/08 03:05:36;;;;;;;6.20;3.00;;;;;;;;;;5089909;28;20107;-60
2022/08/08 03:08:16;;;;;;;5.07;3.20;;;;;;;;;;5091447;28;20020;-60
2022/08/08 03:10:42;;;;;;;4.13;2.80;;;;;;;;;;5085261;28;20032;-60
2022/08/08 03:13:30;;;;;;;5.75;3.50;;;;;;;;;;5090128;28;20034;-60
2022/08/08 03:16:15;;;;;;;4.47;2.85;;;;;;;;;;5090587;28;20495;-61
2022/08/08 03:18:48;;;;;;;4.30;2.58;;;;;;;;;;5084240;28;20024;-60
2022/08/08 03:21:14;;;;;;;;;;;;;;;;;;5083651;28;20120;-60
2022/08/08 03:23:40;;;;;;;4.40;2.70;;;;;;;;;;5088925;28;20003;-60
2022/08/08 03:26:07;;;;;;;3.72;2.88;;;;;;;;;;5082707;28;20285;-61
2022/08/08 03:28:37;;;;;;;4.65;2.90;;;;;;;;;;5087200;28;20036;-60
2022/08/08 03:33:17;;;;;;;5.28;3.00;;;;;;;;;;5078883;28;20483;-61
2022/08/08 03:33:49;;;;;;;5.43;3.70;;;;;;;;;;5074143;28;20066;-60
2022/08/08 03:36:16;;;;;;;4.05;2.85;;;;;;;;;;5089218;28;20036;-60
2022/08/08 03:38:46;;;;;;;5.90;2.70;;;;;;;;;;5076671;28;20025;-61
2022/08/08 03:41:12;;;;;;;4.97;2.90;;;;;;;;;;5083815;28;20050;-60
2022/08/08 03:43:38;;;;;;;4.07;2.40;;;;;;;;;;5093280;28;20467;-60
2022/08/08 03:46:05;;;;;;;4.35;2.95;;;;;;;;;;5094374;28;20039;-60
2022/08/08 03:48:31;;;;;;;4.30;2.97;;;;;;;;;;5085251;28;20055;-61
2022/08/08 03:50:57;;;;;;;5.90;2.78;;;;;;;;;;5086145;28;20036;-61
2022/08/08 03:53:24;;;;;;;5.85;2.92;;;;;;;;;;5074855;28;20021;-61
2022/08/08 03:55:51;;;;;;;7.15;3.33;;;;;;;;;;5086779;28;20048;-60
2022/08/08 03:58:18;;;;;;;4.63;2.70;;;;;;;;;;5094221;28;20025;-60
2022/08/08 04:00:48;;;;;;;7.93;3.55;;;;;;;;;;5092744;28;20571;-60
2022/08/08 04:03:14;;;;;;;5.55;3.28;;;;;;;;;;5088413;28;20020;-60
2022/08/08 04:05:40;;;;;;;4.95;3.17;;;;;;;;;;5084195;28;20027;-60
2022/08/08 04:08:07;;;;;;;5.53;2.70;;;;;;;;;;5089693;28;20615;-60
2022/08/08 04:10:34;;;;;;;6.03;3.42;;;;;;;;;;5089330;28;20369;-60
2022/08/08 04:13:01;;;;;;;4.78;3.03;;;;;;;;;;5086658;28;20028;-61
2022/08/08 04:15:27;;;;;;;8.43;4.03;;;;;;;;;;5085183;28;20089;-61
2022/08/08 04:17:53;;;;;;;4.75;3.40;;;;;;;;;;5089629;28;20361;-60
2022/08/08 04:20:19;;;;;;;6.88;3.42;;;;;;;;;;5089670;28;20027;-60
2022/08/08 04:22:45;;;;;;;7.72;3.25;;;;;;;;;;5089953;28;20039;-61
2022/08/08 04:25:11;;;;;;;4.93;3.33;;;;;;;;;;5093137;28;20066;-60
2022/08/08 04:27:37;;;;;;;6.28;3.70;;;;;;;;;;5091720;28;20086;-61
2022/08/08 04:30:04;;;;;;;5.72;3.88;;;;;;;;;;5092913;28;20032;-61
2022/08/08 04:32:30;;;;;;;13.15;3.70;;;;;;;;;;5085189;28;20032;-60
2022/08/08 04:34:56;;;;;;;6.35;3.08;;;;;;;;;;5092828;28;20065;-61
2022/08/08 04:37:22;;;;;;;5.57;2.75;;;;;;;;;;5092142;28;20023;-60
2022/08/08 04:39:48;;;;;;;5.10;3.50;;;;;;;;;;5087497;28;20016;-60
2022/08/08 04:42:14;;;;;;;5.53;3.42;;;;;;;;;;5092796;28;20070;-61
2022/08/08 04:44:40;;;;;;;4.60;3.22;;;;;;;;;;5089894;28;20479;-60
2022/08/08 04:47:07;;;;;;;4.57;3.28;;;;;;;;;;5088313;28;20028;-61
2022/08/08 04:49:33;;;;;;;5.05;3.10;;;;;;;;;;5090489;28;20051;-60
2022/08/08 04:51:59;;;;;;;5.07;3.30;;;;;;;;;;5088536;28;20035;-61
2022/08/08 04:54:25;;;;;;;5.68;3.25;;;;;;;;;;5089825;28;20135;-61
2022/08/08 04:56:51;;;;;;;6.03;3.15;;;;;;;;;;5088704;28;20040;-61
2022/08/08 04:59:17;;;;;;;3.88;3.00;;;;;;;;;;5091736;28;20098;-61
2022/08/08 05:01:43;;;;;;;7.63;3.13;;;;;;;;;;5082711;28;20056;-60
2022/08/08 05:04:09;;;;;;;5.95;3.20;;;;;;;;;;5075269;28;20024;-60
2022/08/08 05:06:35;;;;;;;6.05;3.33;;;;;;;;;;5081999;28;20115;-60
2022/08/08 05:09:01;;;;;;;7.75;3.70;;;;;;;;;;5077856;28;20028;-60
2022/08/08 05:11:27;;;;;;;6.13;3.95;;;;;;;;;;5087635;28;20039;-60
2022/08/08 05:13:53;;;;;;;5.53;3.33;;;;;;;;;;5076772;28;20028;-60
2022/08/08 05:16:19;;;;;;;6.55;3.65;;;;;;;;;;5080810;28;20081;-60
2022/08/08 05:18:45;;;;;;;4.93;2.83;;;;;;;;;;5081475;28;20024;-60
2022/08/08 05:21:12;;;;;;;6.22;3.38;;;;;;;;;;5091631;28;20052;-60
2022/08/08 05:23:38;;;;;;;5.75;3.25;;;;;;;;;;5091931;28;20020;-61
2022/08/08 05:26:05;;;;;;;7.90;2.80;;;;;;;;;;5077501;28;20036;-60
2022/08/08 05:28:30;;;;;;;5.93;3.42;;;;;;;;;;5092203;28;20571;-60
2022/08/08 05:30:56;;;;;;;5.82;3.20;;;;;;;;;;5091127;28;20035;-61
2022/08/08 05:33:22;;;;;;;4.75;3.22;;;;;;;;;;5088113;28;20024;-60
2022/08/08 05:35:49;;;;;;;4.28;3.00;;;;;;;;;;5088179;28;20111;-61
2022/08/08 05:38:16;;;;;;;5.22;2.78;;;;;;;;;;5084170;28;20081;-61
2022/08/08 05:40:46;;;;;;;6.60;3.33;;;;;;;;;;5083889;28;20024;-60
2022/08/08 05:43:16;;;;;;;5.03;3.50;;;;;;;;;;5080989;28;20095;-60
2022/08/08 05:45:42;;;;;;;9.25;3.80;;;;;;;;;;5078346;28;20036;-60
2022/08/08 05:48:09;;;;;;;6.50;3.40;;;;;;;;;;5091578;28;20046;-60
2022/08/08 05:50:35;;;;;;;5.57;3.67;;;;;;;;;;5082238;28;20028;-60
2022/08/08 05:53:01;;;;;;;7.97;3.80;;;;;;;;;;5090871;28;20024;-61
2022/08/08 05:55:28;;;;;;;4.40;3.40;;;;;;;;;;5076892;28;20106;-61
2022/08/08 05:57:56;;;;;;;5.47;3.10;;;;;;;;;;5080424;28;20027;-61
2022/08/08 06:00:23;;;;;;;6.28;3.50;;;;;;;;;;5088177;28;20024;-60
2022/08/08 06:03:10;;;;;;;5.47;3.40;;;;;;;;;;5089342;28;20543;-61
2022/08/08 06:05:40;;;;;;;9.25;3.72;;;;;;;;;;5081778;28;20499;-61
2022/08/08 06:08:06;;;;;;;7.28;3.97;;;;;;;;;;5089041;28;20151;-60
2022/08/08 06:10:33;;;;;;;11.23;3.47;;;;;;;;;;5087960;28;20035;-61
2022/08/08 06:13:00;;;;;;;6.63;3.42;;;;;;;;;;5084651;28;20084;-61
2022/08/08 06:15:26;;;;;;;6.47;2.83;;;;;;;;;;5082367;28;20428;-61
2022/08/08 06:17:53;;;;;;;8.15;3.42;;;;;;;;;;5086250;28;20114;-61
2022/08/08 06:20:19;;;;;;;4.80;3.25;;;;;;;;;;5086433;28;20031;-61
2022/08/08 06:22:44;;;;;;;5.50;3.03;;;;;;;;;;5078001;28;20457;-61
2022/08/08 06:25:10;;;;;;;9.00;4.25;;;;;;;;;;5087438;28;20035;-61
2022/08/08 06:27:42;;;;;;;7.22;3.05;;;;;;;;;;5071789;28;20122;-61
2022/08/08 06:30:09;;;;;;;10.48;3.28;;;;;;;;;;5083519;28;20023;-61
2022/08/08 06:32:43;;;;;;;5.13;2.78;;;;;;;;;;5077222;28;20040;-61
2022/08/08 06:35:10;;;;;;;4.32;2.78;;;;;;;;;;5087261;28;20494;-61
2022/08/08 06:37:38;;;;;;;5.30;2.45;;;;;;;;;;5088796;28;20445;-61
2022/08/08 06:40:05;;;;;;;10.55;2.92;;;;;;;;;;5087167;28;20032;-61
2022/08/08 06:42:34;;;;;;;7.30;2.80;;;;;;;;;;5071332;28;20515;-61
2022/08/08 06:45:01;;;;;;;3.78;2.38;;;;;;;;;;5081860;28;20077;-61
2022/08/08 06:47:27;;;;;;;5.28;2.50;;;;;;;;;;5087969;28;20039;-62
2022/08/08 06:49:53;;;;;;;8.88;2.35;;;;;;;;;;5088032;28;20031;-61
2022/08/08 06:52:20;;;;;;;5.28;2.30;;;;;;;;;;5080199;28;20020;-60
2022/08/08 06:54:48;;;;;;;5.10;2.30;;;;;;;;;;5089516;28;20028;-60
2022/08/08 06:57:13;;;;;;;4.55;2.70;;;;;;;;;;5091039;28;20044;-61
2022/08/08 06:59:39;;;;;;;4.70;2.45;;;;;;;;;;5075855;28;20412;-61
2022/08/08 07:02:06;;;;;;;4.85;2.30;;;;;;;;;;5084472;28;20058;-61
2022/08/08 07:04:39;;;;;;;5.05;2.08;;;;;;;;;;5076160;28;20060;-61
2022/08/08 07:07:08;;;;;;;3.15;2.25;;;;;;;;;;5083863;28;20024;-61
2022/08/08 07:09:38;;;;;;;12.75;2.90;;;;;;;;;;5083963;28;20057;-61
2022/08/08 07:12:07;;;;;;;4.65;2.38;;;;;;;;;;5073057;28;20024;-61
2022/08/08 07:14:43;;;;;;;7.60;2.63;;;;;;;;;;5083471;28;20036;-61
2022/08/08 07:17:15;;;;;;;8.38;2.42;;;;;;;;;;5084160;28;20036;-61
2022/08/08 07:19:46;;;;;;;6.80;2.72;;;;;;;;;;5085385;28;20415;-61
2022/08/08 07:22:15;;;;;;;6.75;2.20;;;;;;;;;;5085073;28;20052;-61
2022/08/08 07:24:48;;;;;;;5.07;2.50;;;;;;;;;;5090535;28;20429;-61
2022/08/08 07:27:15;;;;;;;6.38;2.28;;;;;;;;;;5090391;28;20510;-60
2022/08/08 07:29:41;;;;;;;4.13;2.40;;;;;;;;;;5090819;28;20124;-61
2022/08/08 07:32:08;;;;;;;3.80;2.08;;;;;;;;;;5077027;28;20032;-61
2022/08/08 07:34:34;;;;;;;3.03;2.05;;;;;;;;;;5091020;28;20020;-61
2022/08/08 07:37:02;;;;;;;3.78;2.05;;;;;;;;;;5084967;28;20512;-61
2022/08/08 07:39:30;;;;;;;4.10;2.28;;;;;;;;;;5080588;28;20036;-61
2022/08/08 07:41:56;;;;;;;5.80;2.00;;;;;;;;;;5070411;28;20017;-61
2022/08/08 07:44:23;;;;;;;6.18;2.47;;;;;;;;;;5070607;28;20031;-61
2022/08/08 07:46:49;;;;;;;5.10;2.50;;;;;;;;;;5079024;28;20530;-61
2022/08/08 07:49:14;;;;;;;5.38;2.25;;;;;;;;;;5086953;28;20059;-61
2022/08/08 07:51:41;;;;;;;3.53;1.70;;;;;;;;;;5078396;28;20146;-61
2022/08/08 07:54:14;;;;;;;5.20;2.08;;;;;;;;;;5085434;28;20040;-61
2022/08/08 07:56:48;;;;;;;6.05;2.05;;;;;;;;;;5077266;28;20074;-61
2022/08/08 07:59:15;;;;;;;5.97;1.98;;;;;;;;;;5081372;28;20028;-62
2022/08/08 08:01:45;;;;;;;3.53;1.83;;;;;;;;;;5088170;28;20108;-61
2022/08/08 08:04:14;;;;;;;3.25;1.60;;;;;;;;;;5081426;28;20103;-61
2022/08/08 08:06:40;;;;;;;6.20;1.58;;;;;;;;;;5077201;28;20029;-60
2022/08/08 08:09:12;;;;;;;2.72;1.92;;;;;;;;;;5086915;28;20024;-61
2022/08/08 08:11:44;;;;;;;4.75;2.03;;;;;;;;;;5088429;28;20032;-61
2022/08/08 08:14:11;;;;;;;3.47;1.80;;;;;;;;;;5088643;28;20387;-61
2022/08/08 08:16:40;;;;;;;5.63;2.22;;;;;;;;;;5086416;28;20036;-61
2022/08/08 08:19:07;;;;;;;4.30;1.83;;;;;;;;;;5082733;28;20111;-61
2022/08/08 08:21:37;;;;;;;6.30;1.92;;;;;;;;;;5089276;28;20069;-60
2022/08/08 08:24:04;;;;;;;4.18;1.90;;;;;;;;;;5091758;28;20075;-61
2022/08/08 08:26:30;;;;;;;3.22;1.83;;;;;;;;;;5074838;28;20024;-61
2022/08/08 08:28:56;;;;;;;4.13;1.92;;;;;;;;;;5082757;28;20024;-61
2022/08/08 08:31:22;;;;;;;11.45;2.80;;;;;;;;;;5093376;28;20031;-61
2022/08/08 08:33:48;;;;;;;3.17;1.70;;;;;;;;;;5092686;28;20028;-61
2022/08/08 08:36:14;;;;;;;3.25;1.73;;;;;;;;;;5088206;28;20042;-60
2022/08/08 08:38:41;;;;;;;3.58;1.63;;;;;;;;;;5088098;28;20093;-61
2022/08/08 08:41:10;;;;;;;4.15;1.88;;;;;;;;;;5084093;28;20464;-61
2022/08/08 08:43:37;;;;;;;3.13;1.60;;;;;;;;;;5085754;28;20093;-61
2022/08/08 08:46:04;;;;;;;5.25;1.52;;;;;;;;;;5093431;28;20046;-61
2022/08/08 08:48:30;;;;;;;3.35;1.42;;;;;;;;;;5089727;28;20021;-61
2022/08/08 08:50:58;;;;;;;4.57;1.55;;;;;;;;;;5087103;28;20036;-61
2022/08/08 08:53:25;;;;;;;2.75;1.20;;;;;;;;;;5075650;28;20028;-61
2022/08/08 08:55:51;;;;;;;4.43;1.10;;;;;;;;;;5069784;28;20053;-61
2022/08/08 08:58:31;;;;;;;17.23;1.75;;;;;;;;;;5069652;28;20036;-60
2022/08/08 09:01:00;;;;;;;2.75;1.17;;;;;;;;;;5072435;28;20432;-61
2022/08/08 09:03:26;;;;;;;4.93;1.85;;;;;;;;;;5083366;28;20628;-61
2022/08/08 09:05:53;;;;;;;2.50;1.40;;;;;;;;;;5083900;28;20135;-61
2022/08/08 09:08:20;;;;;;;3.17;1.67;;;;;;;;;;5076675;28;20035;-60
2022/08/08 09:10:47;;;;;;;5.10;1.65;;;;;;;;;;5072900;28;20480;-61
2022/08/08 09:13:13;;;;;;;4.63;1.80;;;;;;;;;;5090960;28;20072;-61
2022/08/08 09:15:39;;;;;;;4.00;1.48;;;;;;;;;;5091451;28;20723;-61
2022/08/08 09:18:06;;;;;;;3.35;1.52;;;;;;;;;;5082310;28;20031;-60
2022/08/08 09:20:32;;;;;;;5.03;1.75;;;;;;;;;;5083951;28;20135;-61
2022/08/08 09:22:59;;;;;;;6.93;1.90;;;;;;;;;;5090244;28;20027;-61
2022/08/08 09:25:25;;;;;;;3.03;1.60;;;;;;;;;;5092799;28;20031;-60
2022/08/08 09:27:51;;;;;;;4.47;1.73;;;;;;;;;;5092215;28;20406;-61
2022/08/08 09:30:18;;;;;;;6.15;1.83;;;;;;;;;;5091553;28;20085;-61
2022/08/08 09:32:48;;;;;;;3.67;1.70;;;;;;;;;;5090393;28;20577;-60
2022/08/08 09:35:18;;;;;;;7.03;1.42;;;;;;;;;;5088881;28;20099;-61
2022/08/08 09:37:48;;;;;;;4.20;1.73;;;;;;;;;;5090705;28;20051;-61
2022/08/08 09:40:15;;;;;;;4.32;1.73;;;;;;;;;;5089781;28;20038;-61
2022/08/08 09:42:45;;;;;;;2.72;1.67;;;;;;;;;;5082611;28;20028;-61
2022/08/08 09:45:15;;;;;;;16.77;5.43;;;;;;;;;;5072176;28;20354;-61
2022/08/08 09:47:42;;;;;;;5.47;1.70;;;;;;;;;;5082709;28;20057;-60
2022/08/08 09:50:13;;;;;;;6.38;1.95;;;;;;;;;;5086929;28;20036;-61
2022/08/08 09:52:40;;;;;;;4.22;2.15;;;;;;;;;;5087202;28;20549;-60
2022/08/08 09:55:07;;;;;;;6.00;2.20;;;;;;;;;;5085267;28;20035;-60
2022/08/08 09:57:37;;;;;;;6.05;1.92;;;;;;;;;;5091015;28;20590;-60
2022/08/08 10:00:05;;;;;;;2.83;1.48;;;;;;;;;;5088575;28;20501;-61
2022/08/08 10:02:35;;;;;;;3.50;1.70;;;;;;;;;;5090507;28;20380;-61
2022/08/08 10:05:06;;;;;;;4.78;1.67;;;;;;;;;;5088287;28;20032;-61
2022/08/08 10:07:32;;;;;;;3.80;1.85;;;;;;;;;;5086476;28;20032;-61
2022/08/08 10:09:58;;;;;;;3.47;1.95;;;;;;;;;;5088769;28;20103;-61
2022/08/08 10:12:31;;;;;;;4.28;1.67;;;;;;;;;;5089502;28;20506;-61
2022/08/08 10:15:01;;;;;;;3.55;1.60;;;;;;;;;;5084167;28;20439;-61
2022/08/08 10:17:27;;;;;;;2.65;1.45;;;;;;;;;;5086246;28;20085;-61
2022/08/08 10:19:58;;;;;;;6.53;1.70;;;;;;;;;;5080645;28;20421;-61
2022/08/08 10:22:25;;;;;;;5.05;1.70;;;;;;;;;;5083747;28;20028;-61
2022/08/08 10:24:53;;;;;;;3.33;1.58;;;;;;;;;;5086765;28;20028;-61
2022/08/08 10:27:21;;;;;;;4.72;2.00;;;;;;;;;;5077132;28;20028;-61
2022/08/08 10:29:58;;;;;;;3.83;1.92;;;;;;;;;;5090068;28;20032;-61
2022/08/08 10:32:34;;;;;;;3.22;1.77;;;;;;;;;;5084766;28;20052;-61
2022/08/08 10:35:01;;;;;;;5.32;1.80;;;;;;;;;;5085619;28;20460;-61
2022/08/08 10:37:37;;;;;;;2.97;1.75;;;;;;;;;;5087904;28;20036;-61
2022/08/08 10:40:14;;;;;;;3.67;1.60;;;;;;;;;;5088237;28;20027;-60
2022/08/08 10:42:40;;;;;;;3.83;1.50;;;;;;;;;;5086334;28;20063;-61
2022/08/08 10:45:07;;;;;;;4.43;1.70;;;;;;;;;;5079182;28;20035;-61
2022/08/08 10:47:34;;;;;;;3.35;1.50;;;;;;;;;;5086894;28;20032;-61
2022/08/08 10:50:00;;;;;;;2.67;1.20;;;;;;;;;;5082097;28;20040;-61
2022/08/08 10:52:35;;;;;;;5.35;1.55;;;;;;;;;;5085108;28;20111;-61
2022/08/08 10:55:03;;;;;;;4.70;1.67;;;;;;;;;;5084243;28;20503;-61
2022/08/08 10:57:30;;;;;;;1.73;1.25;;;;;;;;;;5088626;28;20044;-61
2022/08/08 10:59:56;;;;;;;2.70;1.55;;;;;;;;;;5090058;28;20024;-61
2022/08/08 11:02:41;;;;;;;5.35;1.98;;;;;;;;;;5089788;28;20032;-61
2022/08/08 11:05:08;;;;;;;3.75;1.40;;;;;;;;;;5080565;28;20016;-61
2022/08/08 11:07:36;;;;;;;2.92;1.42;;;;;;;;;;5084302;28;20559;-61
2022/08/08 11:10:03;;;;;;;4.35;1.52;;;;;;;;;;5078859;28;20039;-61
2022/08/08 11:12:29;;;;;;;3.00;1.42;;;;;;;;;;5087588;28;20100;-61
2022/08/08 11:15:01;;;;;;;2.80;1.52;;;;;;;;;;5091214;28;20028;-60
2022/08/08 11:17:28;;;;;;;2.77;1.17;;;;;;;;;;5084998;28;20033;-61
2022/08/08 11:19:54;;;;;;;3.60;1.58;;;;;;;;;;5080561;28;20028;-61
2022/08/08 11:22:23;;;;;;;3.10;1.52;;;;;;;;;;5089669;28;20031;-60
2022/08/08 11:24:49;;;;;;;4.50;1.42;;;;;;;;;;5091010;28;20024;-61
2022/08/08 11:27:16;;;;;;;4.78;2.05;;;;;;;;;;5089643;28;20541;-61
2022/08/08 11:29:42;;;;;;;6.65;1.75;;;;;;;;;;5090891;28;20107;-61
2022/08/08 11:32:10;;;;;;;1.90;1.33;;;;;;;;;;5090915;28;20024;-61
2022/08/08 11:34:37;;;;;;;3.72;1.52;;;;;;;;;;5089473;28;20059;-61
2022/08/08 11:37:03;;;;;;;7.93;1.52;;;;;;;;;;5072840;28;20056;-61
2022/08/08 11:39:30;;;;;;;2.17;1.60;;;;;;;;;;5070837;28;20020;-60
2022/08/08 11:41:56;;;;;;;2.78;1.60;;;;;;;;;;5074362;28;20475;-61
2022/08/08 11:44:23;;;;;;;4.05;1.60;;;;;;;;;;5090924;28;20751;-61
2022/08/08 11:46:56;;;;;;;3.10;1.55;;;;;;;;;;5088448;28;20027;-61
2022/08/08 11:49:22;;;;;;;;;;;;;;;;;;5091281;28;20096;-61
2022/08/08 11:51:48;;;;;;;3.47;1.35;;;;;;;;;;5086261;28;20410;-61
2022/08/08 11:54:14;;;;;;;3.40;1.70;;;;;;;;;;5081706;28;20020;-61
2022/08/08 11:56:40;;;;;;;2.78;1.40;;;;;;;;;;5087147;28;20369;-61
2022/08/08 11:59:07;;;;;;;2.13;1.42;;;;;;;;;;5091016;28;20028;-61
2022/08/08 12:01:33;;;;;;;3.60;1.63;;;;;;;;;;5090344;28;20075;-61
2022/08/08 12:03:59;;;;;;;4.22;1.65;;;;;;;;;;5091362;28;20024;-60
2022/08/08 12:06:25;;;;;;;2.35;1.30;;;;;;;;;;5088523;28;20025;-61
2022/08/08 12:08:51;;;;;;;3.90;1.60;;;;;;;;;;5075954;28;20067;-61
2022/08/08 12:11:18;;;;;;;5.13;1.95;;;;;;;;;;5073852;28;20060;-61
2022/08/08 12:13:47;;;;;;;2.58;1.70;;;;;;;;;;5082621;28;20062;-61
2022/08/08 12:16:17;;;;;;;5.03;1.20;;;;;;;;;;5078241;28;20028;-61
2022/08/08 12:18:53;;;;;;;3.17;1.33;;;;;;;;;;5082468;28;20507;-61
2022/08/08 12:21:20;;;;;;;4.60;1.60;;;;;;;;;;5081511;28;20020;-61
2022/08/08 12:23:47;;;;;;;2.53;1.23;;;;;;;;;;5082166;28;20027;-61
2022/08/08 12:26:14;;;;;;;3.88;1.50;;;;;;;;;;5079693;28;20024;-61
2022/08/08 12:28:40;;;;;;;2.88;1.48;;;;;;;;;;5075547;28;20117;-61
2022/08/08 12:31:07;;;;;;;5.55;1.55;;;;;;;;;;5077354;28;20432;-61
2022/08/08 12:33:33;;;;;;;3.30;1.27;;;;;;;;;;5083000;28;20041;-61
2022/08/08 12:36:10;;;;;;;2.42;1.42;;;;;;;;;;5091781;28;20055;-61
2022/08/08 12:38:52;;;;;;;2.95;1.50;;;;;;;;;;5090793;28;20035;-61
2022/08/08 12:41:21;;;;;;;2.38;1.38;;;;;;;;;;5089338;28;20090;-61
2022/08/08 12:43:47;;;;;;;3.25;1.50;;;;;;;;;;5093484;28;20082;-61
2022/08/08 12:46:14;;;;;;;4.00;1.67;;;;;;;;;;5080096;28;20095;-61
2022/08/08 12:48:41;;;;;;;4.22;1.17;;;;;;;;;;5086134;28;20031;-61
2022/08/08 12:51:18;;;;;;;2.47;1.42;;;;;;;;;;5083717;28;20031;-61
2022/08/08 12:53:54;;;;;;;1.70;1.30;;;;;;;;;;5082442;28;20597;-61
2022/08/08 12:56:31;;;;;;;1.95;1.25;;;;;;;;;;5081900;28;20041;-61
2022/08/08 12:58:57;;;;;;;2.50;1.17;;;;;;;;;;5081203;28;20030;-61
2022/08/08 13:01:36;;;;;;;3.55;1.15;;;;;;;;;;5081419;28;20425;-61
2022/08/08 13:04:15;;;;;;;2.95;1.23;;;;;;;;;;5087805;28;20391;-61
2022/08/08 13:06:57;;;;;;;1.98;1.27;;;;;;;;;;5086436;28;20056;-61
2022/08/08 13:09:36;;;;;;;2.33;1.20;;;;;;;;;;5080571;28;20024;-61
2022/08/08 13:12:10;;;;;;;2.92;1.30;;;;;;;;;;5085820;28;20500;-61
2022/08/08 13:14:38;;;;;;;4.85;1.25;;;;;;;;;;5083319;28;20539;-61
2022/08/08 13:17:05;;;;;;;5.03;1.15;;;;;;;;;;5087267;28;20101;-61
2022/08/08 13:19:31;;;;;;;5.30;1.30;;;;;;;;;;5085594;28;20527;-61
2022/08/08 13:21:57;;;;;;;3.63;1.13;;;;;;;;;;5083929;28;20020;-61
2022/08/08 13:24:24;;;;;;;4.47;1.27;;;;;;;;;;5084561;28;20385;-61
2022/08/08 13:26:59;;;;;;;3.22;1.10;;;;;;;;;;5074092;28;20016;-61
2022/08/08 13:29:25;;;;;;;2.22;1.20;;;;;;;;;;5088819;28;20036;-61
2022/08/08 13:31:51;;;;;;;3.25;1.30;;;;;;;;;;5088013;28;20043;-61
2022/08/08 13:34:21;;;;;;;1.80;1.10;;;;;;;;;;5086002;28;20527;-61
2022/08/08 13:36:48;;;;;;;3.10;1.25;;;;;;;;;;5072929;28;20032;-61
2022/08/08 13:39:15;;;;;;;2.35;1.13;;;;;;;;;;5088637;28;20664;-61
2022/08/08 13:41:42;;;;;;;7.10;1.35;;;;;;;;;;5091786;28;20483;-61
2022/08/08 13:44:08;;;;;;;3.70;1.50;;;;;;;;;;5087600;28;20067;-61
2022/08/08 13:46:34;;;;;;;1.90;1.20;;;;;;;;;;5084339;28;20484;-61
2022/08/08 13:49:00;;;;;;;1.70;1.17;;;;;;;;;;5085591;28;20017;-61
2022/08/08 13:51:26;;;;;;;1.80;1.30;;;;;;;;;;5084666;28;20164;-61
2022/08/08 13:53:56;;;;;;;3.58;1.48;;;;;;;;;;5082587;28;20063;-62
2022/08/08 13:56:35;;;;;;;3.22;1.20;;;;;;;;;;5080709;28;20067;-61
2022/08/08 13:59:01;;;;;;;3.22;1.33;;;;;;;;;;5082427;28;20500;-61
2022/08/08 14:01:31;;;;;;;3.88;1.30;;;;;;;;;;5082709;28;20043;-61
2022/08/08 14:04:00;;;;;;;17.45;3.42;;;;;;;;;;5085233;28;20543;-61
2022/08/08 14:06:27;;;;;;;2.97;0.98;;;;;;;;;;5085226;28;20073;-61
2022/08/08 14:08:54;;;;;;;2.47;1.45;;;;;;;;;;5080345;28;20024;-61
2022/08/08 14:11:21;;;;;;;3.05;1.25;;;;;;;;;;5086432;28;20035;-61
2022/08/08 14:13:47;;;;;;;2.72;1.30;;;;;;;;;;5088613;28;20564;-61
2022/08/08 14:16:14;;;;;;;3.60;1.63;;;;;;;;;;5091709;28;20055;-61
2022/08/08 14:18:53;;;;;;;3.58;1.38;;;;;;;;;;5085708;28;20861;-61
2022/08/08 14:21:19;;;;;;;4.90;1.10;;;;;;;;;;5089812;28;20532;-61
2022/08/08 14:23:45;;;;;;;4.00;1.17;;;;;;;;;;5084359;28;20028;-62
2022/08/08 14:26:27;;;;;;;7.78;1.10;;;;;;;;;;5089669;28;20024;-61
2022/08/08 14:28:57;;;;;;;4.20;1.25;;;;;;;;;;5083038;28;20055;-60
2022/08/08 14:31:23;;;;;;;2.33;1.08;;;;;;;;;;5087759;28;20114;-59
2022/08/08 14:33:57;;;;;;;5.50;1.60;;;;;;;;;;5085230;28;20031;-61
2022/08/08 14:36:33;;;;;;;3.20;1.38;;;;;;;;;;5084625;28;20408;-61
2022/08/08 14:38:59;;;;;;;3.75;1.45;;;;;;;;;;5079634;28;20468;-61
2022/08/08 14:41:26;;;;;;;3.45;1.20;;;;;;;;;;5087948;28;20092;-61
2022/08/08 14:43:57;;;;;;;2.95;1.38;;;;;;;;;;5088075;28;20480;-61
2022/08/08 14:46:27;;;;;;;5.40;1.30;;;;;;;;;;5090810;28;20546;-61
2022/08/08 14:48:54;;;;;;;2.45;1.38;;;;;;;;;;5090215;28;20499;-61
2022/08/08 14:51:20;;;;;;;2.33;1.42;;;;;;;;;;5084231;28;20447;-61
2022/08/08 14:53:47;;;;;;;4.53;1.38;;;;;;;;;;5083696;28;20081;-61
2022/08/08 14:56:13;;;;;;;2.38;1.42;;;;;;;;;;5082484;28;20049;-60
2022/08/08 14:58:39;;;;;;;2.75;1.50;;;;;;;;;;5075456;28;20040;-60
2022/08/08 15:01:05;;;;;;;6.32;1.20;;;;;;;;;;5084440;28;20021;-61